Time;durP1;ratioP1;P1;durP2;ratioP2;P2;SDS_P1;SDS_P2;PMS_P1;PMS_P2;Temp;Humidity;BMP_temperature;BMP_pressure;BME280_temperature;BME280_humidity;BME280_pressure;Samples;Min_cycle;Max_cycle;Signal;HPM_P1;HPM_P2
2021/01/05 00:02:32;;;;;;;41.80;15.27;;;;;;;1.45;98.49;100677.52;3624145;80;34966;-85
2021/01/05 00:07:34;;;;;;;36.17;14.43;;;;;;;1.47;98.52;100671.22;3618195;80;98662;-87
2021/01/05 00:12:35;;;;;;;65.77;19.67;;;;;;;1.54;98.69;100672.96;3626250;80;35081;-86
2021/01/05 00:17:36;;;;;;;148.37;39.73;;;;;;;1.57;98.23;100669.06;3622381;80;98696;-86
2021/01/05 00:22:37;;;;;;;48.03;18.67;;;;;;;1.51;98.31;100673.56;3706250;77;35738;-85
2021/01/05 00:27:38;;;;;;;35.37;14.60;;;;;;;1.53;98.52;100668.08;3700871;77;98605;-86
2021/01/05 00:32:42;;;;;;;35.17;14.30;;;;;;;1.54;98.48;100662.11;3704797;78;35480;-86
2021/01/05 00:37:43;;;;;;;46.20;18.97;;;;;;;1.59;98.27;100656.55;3701580;78;98497;-85
2021/01/05 00:42:45;;;;;;;37.50;15.60;;;;;;;1.69;98.21;100665.21;3704764;78;35083;-85
2021/01/05 00:47:46;;;;;;;45.10;16.27;;;;;;;1.71;98.07;100666.27;3698788;78;98850;-85
2021/01/05 00:52:47;;;;;;;36.70;15.47;;;;;;;1.57;97.73;100665.00;3700512;78;35054;-86
2021/01/05 00:57:48;;;;;;;36.23;15.67;;;;;;;1.45;97.91;100661.25;3696260;78;98794;-86
2021/01/05 01:02:51;;;;;;;31.13;13.73;;;;;;;1.42;98.16;100660.53;3704957;77;35139;-85
2021/01/05 01:07:52;;;;;;;31.77;13.03;;;;;;;1.48;98.02;100663.36;3691558;78;98903;-86
2021/01/05 01:12:52;;;;;;;30.33;13.67;;;;;;;1.46;97.99;100669.09;3706718;77;35090;-86
2021/01/05 01:17:53;;;;;;;31.17;14.63;;;;;;;1.48;98.15;100666.07;3691413;77;98616;-85
2021/01/05 01:22:54;;;;;;;28.03;12.50;;;;;;;1.50;98.08;100658.41;3700823;77;35095;-86
2021/01/05 01:27:55;;;;;;;30.37;11.85;;;;;;;1.45;97.93;100662.07;3695895;77;98830;-85
2021/01/05 01:32:57;;;;;;;32.63;12.70;;;;;;;1.47;98.06;100659.02;3710187;78;35562;-85
2021/01/05 01:37:58;;;;;;;30.93;12.03;;;;;;;1.44;97.89;100663.73;3696170;78;98640;-86
2021/01/05 01:43:00;;;;;;;33.03;13.23;;;;;;;1.40;97.95;100662.73;3701568;78;35418;-86
2021/01/05 01:48:07;;;;;;;31.10;12.33;;;;;;;1.38;98.05;100647.34;3700029;78;98845;-85
2021/01/05 01:53:35;;;;;;;27.73;12.00;;;;;;;1.31;98.13;100637.51;3701001;78;35431;-85
2021/01/05 01:59:08;;;;;;;32.20;13.38;;;;;;;1.24;98.12;100641.19;3691190;77;98274;-86
2021/01/05 02:04:23;;;;;;;29.50;12.20;;;;;;;1.27;98.34;100644.66;3703369;78;35742;-85
2021/01/05 02:09:56;;;;;;;29.50;14.43;;;;;;;1.31;98.14;100630.16;3698261;78;98673;-86
2021/01/05 02:15:43;;;;;;;31.70;13.60;;;;;;;1.23;98.33;100636.34;3372045;86;35514;-85
2021/01/05 02:20:48;;;;;;;29.98;13.08;;;;;;;1.24;98.46;100633.87;3406218;83;98412;-86
2021/01/05 02:26:09;;;;;;;28.70;12.13;;;;;;;1.21;98.49;100626.34;3422031;85;35121;-85
2021/01/05 02:31:19;;;;;;;29.40;12.53;;;;;;;1.19;98.49;100626.41;3383128;85;98636;-86
2021/01/05 02:36:48;;;;;;;33.30;13.47;;;;;;;1.12;98.52;100626.87;3423292;85;35115;-85
2021/01/05 02:42:24;;;;;;;25.30;11.23;;;;;;;1.13;98.66;100629.81;3400247;85;36155;-86
2021/01/05 02:47:45;;;;;;;30.93;12.13;;;;;;;1.08;98.80;100612.87;3421863;82;99078;-86
2021/01/05 02:58:58;;;;;;;35.73;13.30;;;;;;;1.02;98.90;100602.73;3484518;82;98767;-84
2021/01/05 03:03:59;;;;;;;36.13;13.63;;;;;;;1.01;99.10;100604.39;3410397;85;35301;-83
2021/01/05 03:09:41;;;;;;;32.63;13.27;;;;;;;1.00;99.22;100611.70;3548202;81;98759;-83
2021/01/05 03:15:07;;;;;;;34.10;13.47;;;;;;;0.94;99.21;100608.09;3554693;81;35058;-85
2021/01/05 03:20:28;;;;;;;32.63;11.65;;;;;;;0.88;99.40;100601.98;3491792;81;98794;-85
2021/01/05 03:25:34;;;;;;;42.50;14.77;;;;;;;0.91;99.53;100598.67;3467118;83;35595;-85
2021/01/05 03:30:40;;;;;;;38.20;14.70;;;;;;;0.96;99.48;100593.13;3498612;82;98632;-85
2021/01/05 03:35:41;;;;;;;36.60;13.43;;;;;;;0.98;99.46;100584.67;3513568;82;26772;-86
2021/01/05 03:40:42;;;;;;;42.23;14.87;;;;;;;0.96;99.41;100573.34;3444047;84;98494;-85
2021/01/05 03:45:43;;;;;;;44.27;16.20;;;;;;;0.96;99.56;100571.45;3514151;82;35081;-85
2021/01/05 03:50:45;;;;;;;39.93;13.23;;;;;;;0.97;99.50;100573.59;3502350;82;98603;-85
2021/01/05 03:55:46;;;;;;;34.83;12.17;;;;;;;0.97;99.59;100571.69;3511869;82;35061;-84
2021/01/05 04:00:47;;;;;;;35.53;12.30;;;;;;;0.98;99.69;100569.22;3494145;82;98563;-85
2021/01/05 04:05:48;;;;;;;44.07;15.10;;;;;;;0.96;99.61;100578.77;3511182;83;35074;-84
2021/01/05 04:10:49;;;;;;;38.27;13.50;;;;;;;0.96;99.67;100576.06;3500557;83;98921;-85
2021/01/05 04:15:50;;;;;;;43.10;16.37;;;;;;;0.96;99.70;100582.84;3507252;83;35522;-84
2021/01/05 04:20:51;;;;;;;39.47;13.87;;;;;;;0.97;99.70;100584.42;3444567;84;98788;-84
2021/01/05 04:25:52;;;;;;;36.07;13.53;;;;;;;0.98;99.64;100575.19;3505644;83;35012;-84
2021/01/05 04:30:53;;;;;;;36.30;15.17;;;;;;;1.01;99.78;100574.58;3502624;83;98483;-85
2021/01/05 04:35:54;;;;;;;37.73;13.40;;;;;;;1.04;99.68;100585.59;3506488;83;33139;-85
2021/01/05 04:40:55;;;;;;;33.97;12.97;;;;;;;1.05;99.64;100576.92;3505940;82;98516;-85
2021/01/05 04:46:20;;;;;;;27.17;11.87;;;;;;;1.09;99.61;100580.62;3512034;83;33148;-84
2021/01/05 04:51:41;;;;;;;33.35;13.95;;;;;;;1.08;99.60;100574.93;3498139;83;98450;-84
2021/01/05 04:57:05;;;;;;;30.17;12.03;;;;;;;1.03;99.58;100575.87;3514114;83;33227;-84
2021/01/05 05:02:23;;;;;;;32.07;11.77;;;;;;;0.98;99.69;100576.00;3508098;83;32685;-85
2021/01/05 05:07:53;;;;;;;30.48;11.48;;;;;;;0.98;99.79;100577.35;3501205;82;98650;-84
2021/01/05 05:13:05;;;;;;;25.70;10.77;;;;;;;0.99;99.87;100574.88;3510499;83;32732;-85
2021/01/05 05:18:45;;;;;;;29.60;11.68;;;;;;;0.96;99.92;100575.52;3502704;83;98319;-84
2021/01/05 05:24:22;;;;;;;29.63;11.93;;;;;;;0.99;100.00;100564.62;3510163;83;32719;-85
2021/01/05 05:29:31;;;;;;;32.63;12.18;;;;;;;0.99;100.00;100570.03;3511279;83;99169;-84
2021/01/05 05:34:43;;;;;;;29.77;12.53;;;;;;;0.99;100.00;100567.33;3512303;83;33330;-83
2021/01/05 05:40:07;;;;;;;27.57;12.07;;;;;;;1.00;100.00;100560.79;3504032;81;98491;-84
2021/01/05 05:45:32;;;;;;;28.43;11.23;;;;;;;1.01;100.00;100552.36;3508109;83;33313;-85
2021/01/05 05:56:15;;;;;;;24.60;9.70;;;;;;;1.01;99.93;100557.78;3518155;81;29591;-86
2021/01/05 06:01:22;;;;;;;25.65;11.15;;;;;;;0.96;100.00;100563.33;3542526;81;98358;-85
2021/01/05 06:06:23;;;;;;;24.50;9.75;;;;;;;0.99;100.00;100541.58;3545911;82;26468;-85
2021/01/05 06:11:24;;;;;;;24.37;10.53;;;;;;;1.01;100.00;100538.00;3536476;82;98456;-85
2021/01/05 06:16:25;;;;;;;26.50;10.03;;;;;;;1.04;100.00;100540.09;3543544;82;33224;-85
2021/01/05 06:21:26;;;;;;;22.63;10.00;;;;;;;1.06;100.00;100541.39;3536147;82;98513;-85
2021/01/05 06:26:27;;;;;;;24.37;11.23;;;;;;;1.05;100.00;100540.34;3525148;82;33952;-85
2021/01/05 06:31:28;;;;;;;25.37;10.37;;;;;;;1.03;100.00;100530.34;3538240;82;98746;-85
2021/01/05 06:36:29;;;;;;;24.13;10.20;;;;;;;1.05;100.00;100523.50;3544377;82;32655;-85
2021/01/05 06:41:30;;;;;;;23.10;10.67;;;;;;;1.03;100.00;100528.98;3541041;82;100351;-85
2021/01/05 06:46:31;;;;;;;21.80;8.53;;;;;;;1.02;100.00;100524.14;3541730;82;32750;-85
2021/01/05 06:51:32;;;;;;;23.37;9.67;;;;;;;1.03;100.00;100520.31;3538677;82;98540;-85
2021/01/05 06:56:33;;;;;;;23.67;9.10;;;;;;;1.02;99.99;100521.98;3555750;81;28242;-85
2021/01/05 07:01:34;;;;;;;25.60;10.40;;;;;;;1.03;100.00;100521.67;3574593;81;98410;-85
2021/01/05 07:06:34;;;;;;;20.27;8.57;;;;;;;1.03;100.00;100536.58;3580408;81;26050;-85
2021/01/05 07:11:35;;;;;;;24.07;9.57;;;;;;;1.01;100.00;100531.22;3580678;81;98661;-84
2021/01/05 07:16:36;;;;;;;23.93;10.03;;;;;;;0.98;100.00;100526.41;3581657;81;26188;-86
2021/01/05 07:21:37;;;;;;;22.53;10.37;;;;;;;0.97;100.00;100526.17;3577846;81;98704;-85
2021/01/05 07:26:42;;;;;;;24.87;10.17;;;;;;;0.93;100.00;100531.99;3583552;81;25993;-85
2021/01/05 07:31:43;;;;;;;23.73;10.05;;;;;;;0.92;100.00;100527.66;3580177;81;98503;-85
2021/01/05 07:36:55;;;;;;;27.07;10.53;;;;;;;0.96;100.00;100521.87;3586660;81;27514;-86
2021/01/05 07:42:25;;;;;;;25.03;10.10;;;;;;;0.99;100.00;100525.33;3588748;81;27133;-87
2021/01/05 07:47:33;;;;;;;22.90;9.75;;;;;;;1.04;100.00;100521.13;3571632;81;99134;-86
2021/01/05 07:52:37;;;;;;;25.47;10.97;;;;;;;1.05;100.00;100522.72;3567309;81;27598;-87
2021/01/05 07:57:38;;;;;;;26.52;12.00;;;;;;;1.04;100.00;100516.48;3497759;82;98841;-87
2021/01/05 08:02:39;;;;;;;24.17;9.97;;;;;;;1.07;100.00;100517.23;3507037;82;26343;-87
2021/01/05 08:07:40;;;;;;;24.53;10.43;;;;;;;1.10;100.00;100515.81;3502847;82;98681;-87
2021/01/05 08:12:41;;;;;;;22.73;10.57;;;;;;;1.09;100.00;100510.94;3505476;82;26439;-86
2021/01/05 08:17:42;;;;;;;26.23;11.60;;;;;;;1.12;100.00;100503.55;3498004;82;98852;-86
2021/01/05 08:22:43;;;;;;;25.83;10.30;;;;;;;1.15;100.00;100501.55;3499030;82;26027;-85
2021/01/05 08:27:49;;;;;;;22.10;9.77;;;;;;;1.16;100.00;100494.23;3503767;83;98914;-88
2021/01/05 08:32:52;;;;;;;23.30;10.67;;;;;;;1.21;100.00;100499.52;3502793;82;27551;-86
2021/01/05 08:37:53;;;;;;;24.30;10.98;;;;;;;1.20;100.00;100491.15;3501325;82;99096;-86
2021/01/05 08:42:56;;;;;;;26.60;11.63;;;;;;;1.18;100.00;100492.81;3510118;83;26478;-87
2021/01/05 08:47:59;;;;;;;24.83;11.23;;;;;;;1.20;100.00;100489.22;3496275;82;98655;-87
2021/01/05 08:53:11;;;;;;;28.57;12.37;;;;;;;1.24;100.00;100479.36;3498786;81;27616;-87
2021/01/05 08:58:11;;;;;;;28.85;11.70;;;;;;;1.28;100.00;100477.63;3574154;81;99017;-84
2021/01/05 09:03:12;;;;;;;29.37;12.20;;;;;;;1.36;100.00;100473.31;3586284;81;26533;-85
2021/01/05 09:08:17;;;;;;;34.00;13.60;;;;;;;1.37;100.00;100466.80;3562743;81;98908;-86
2021/01/05 09:13:18;;;;;;;29.73;12.40;;;;;;;1.43;100.00;100460.89;3579371;81;27664;-85
2021/01/05 09:18:20;;;;;;;33.90;12.10;;;;;;;1.46;100.00;100465.70;3582099;81;98860;-86
2021/01/05 09:23:23;;;;;;;31.53;13.27;;;;;;;1.50;100.00;100469.93;3578851;81;27439;-86
2021/01/05 09:28:27;;;;;;;31.60;12.28;;;;;;;1.54;100.00;100464.91;3575754;81;98840;-87
2021/01/05 09:33:28;;;;;;;29.50;13.47;;;;;;;1.57;100.00;100468.36;3581116;81;28197;-86
2021/01/05 09:38:29;;;;;;;29.43;12.50;;;;;;;1.62;100.00;100453.29;3579855;81;98601;-86
2021/01/05 09:43:31;;;;;;;30.97;14.45;;;;;;;1.62;100.00;100453.29;3567002;81;26383;-85
2021/01/05 09:48:31;;;;;;;27.00;11.53;;;;;;;1.65;100.00;100455.35;3577650;81;98620;-85
2021/01/05 09:53:35;;;;;;;29.70;13.10;;;;;;;1.64;100.00;100455.11;3580136;81;26421;-86
2021/01/05 09:58:36;;;;;;;33.37;12.93;;;;;;;1.63;100.00;100443.22;3570608;81;98513;-86
2021/01/05 10:03:37;;;;;;;28.93;13.23;;;;;;;1.65;100.00;100437.72;3567850;81;26456;-85
2021/01/05 10:08:38;;;;;;;25.70;10.80;;;;;;;1.68;100.00;100428.15;3578807;81;98834;-85
2021/01/05 10:13:39;;;;;;;25.83;11.40;;;;;;;1.70;100.00;100429.43;3582933;81;26100;-85
2021/01/05 10:18:39;;;;;;;29.23;11.70;;;;;;;1.71;100.00;100417.45;3575457;81;99243;-86
2021/01/05 10:23:40;;;;;;;23.00;10.57;;;;;;;1.71;100.00;100411.25;3585143;81;26083;-84
2021/01/05 10:28:41;;;;;;;24.03;10.83;;;;;;;1.77;100.00;100408.62;3575319;81;98865;-85
2021/01/05 10:33:42;;;;;;;27.17;11.00;;;;;;;1.78;100.00;100406.14;3577066;81;26422;-85
2021/01/05 10:38:47;;;;;;;25.50;11.47;;;;;;;1.81;100.00;100405.52;3577767;81;98812;-84
2021/01/05 10:43:49;;;;;;;26.20;11.50;;;;;;;1.82;100.00;100406.55;3581459;81;33013;-85
2021/01/05 10:48:49;;;;;;;24.97;11.97;;;;;;;1.83;100.00;100391.87;3570356;81;98891;-86
2021/01/05 10:53:50;;;;;;;24.70;10.97;;;;;;;1.89;100.00;100387.88;3568956;81;98461;-85
2021/01/05 10:58:51;;;;;;;25.37;11.97;;;;;;;1.96;100.00;100383.30;3580196;81;32982;-86
2021/01/05 11:03:52;;;;;;;25.33;12.10;;;;;;;1.97;100.00;100376.20;3567455;81;98714;-85
2021/01/05 11:08:53;;;;;;;28.97;11.13;;;;;;;2.00;100.00;100366.07;3579193;81;31785;-85
2021/01/05 11:13:54;;;;;;;28.50;11.67;;;;;;;1.98;100.00;100366.93;3574885;81;98685;-86
2021/01/05 11:18:55;;;;;;;27.20;12.17;;;;;;;1.98;100.00;100350.65;3581101;81;32218;-88
2021/01/05 11:23:56;;;;;;;27.13;11.90;;;;;;;2.01;100.00;100343.78;3570552;80;99136;-86
2021/01/05 11:28:57;;;;;;;27.73;12.33;;;;;;;2.03;100.00;100336.13;3560626;81;31783;-85
2021/01/05 11:33:58;;;;;;;27.97;11.87;;;;;;;2.03;100.00;100329.34;3580055;81;31825;-86
2021/01/05 11:38:59;;;;;;;30.27;12.37;;;;;;;2.03;100.00;100321.98;3583489;81;31972;-85
2021/01/05 11:44:01;;;;;;;30.17;12.77;;;;;;;2.04;100.00;100314.10;3572342;81;98809;-85
2021/01/05 11:49:02;;;;;;;23.30;10.57;;;;;;;2.05;100.00;100310.27;3581208;81;31752;-86
2021/01/05 11:54:05;;;;;;;24.07;10.20;;;;;;;2.10;100.00;100311.45;3575577;80;99063;-85
2021/01/05 11:59:06;;;;;;;23.10;11.23;;;;;;;2.12;100.00;100304.31;3581772;81;31725;-83
2021/01/05 12:04:10;;;;;;;22.10;10.37;;;;;;;2.12;100.00;100296.98;3574281;81;99139;-85
2021/01/05 12:09:11;;;;;;;22.43;11.47;;;;;;;2.11;100.00;100291.87;3582932;81;31871;-85
2021/01/05 12:14:14;;;;;;;21.77;10.33;;;;;;;2.13;100.00;100280.92;3582716;81;98839;-85
2021/01/05 12:19:20;;;;;;;21.93;10.30;;;;;;;2.12;100.00;100273.91;3585547;81;31767;-86
2021/01/05 12:24:25;;;;;;;22.30;10.35;;;;;;;2.12;100.00;100265.77;3577604;81;98801;-85
2021/01/05 12:29:30;;;;;;;20.97;10.67;;;;;;;2.15;100.00;100261.06;3582246;81;25938;-85
2021/01/05 12:34:38;;;;;;;24.10;10.10;;;;;;;2.14;100.00;100257.30;3576007;81;98586;-85
2021/01/05 12:39:39;;;;;;;25.27;11.23;;;;;;;2.16;100.00;100253.69;3582040;81;31767;-85
2021/01/05 12:44:40;;;;;;;24.20;11.28;;;;;;;2.23;100.00;100255.33;3575309;81;98596;-86
2021/01/05 12:49:41;;;;;;;23.10;11.00;;;;;;;2.23;100.00;100257.50;3579871;81;31784;-85
2021/01/05 12:54:43;;;;;;;21.57;11.70;;;;;;;2.26;100.00;100254.14;3571092;81;98608;-85
2021/01/05 12:59:47;;;;;;;23.10;11.17;;;;;;;2.28;100.00;100249.72;3581319;81;31836;-86
2021/01/05 13:04:49;;;;;;;22.17;11.35;;;;;;;2.24;100.00;100250.94;3560887;81;98638;-86
2021/01/05 13:09:56;;;;;;;20.53;10.53;;;;;;;2.26;100.00;100256.05;3565844;81;32228;-85
2021/01/05 13:14:59;;;;;;;20.90;10.33;;;;;;;2.25;100.00;100253.89;3573480;81;98708;-87
2021/01/05 13:19:59;;;;;;;19.27;9.70;;;;;;;2.26;99.99;100253.34;3582733;81;31752;-86
2021/01/05 13:25:01;;;;;;;21.70;10.80;;;;;;;2.22;99.94;100257.27;3574975;81;98755;-87
2021/01/05 13:30:05;;;;;;;32.43;13.37;;;;;;;2.20;100.00;100256.00;3584013;81;32824;-86
2021/01/05 13:35:07;;;;;;;20.80;9.60;;;;;;;2.18;100.00;100245.46;3472708;82;98755;-88
2021/01/05 13:40:08;;;;;;;16.87;7.30;;;;;;;2.17;100.00;100250.66;3561741;81;32991;-88
2021/01/05 13:45:11;;;;;;;23.53;12.37;;;;;;;2.16;99.83;100251.78;3554781;80;98402;-87
2021/01/05 13:50:12;;;;;;;18.97;9.13;;;;;;;2.10;99.77;100254.45;3560528;81;31785;-88
2021/01/05 13:55:15;;;;;;;19.73;8.10;;;;;;;2.07;99.80;100252.38;3551383;81;98346;-89
2021/01/05 14:00:17;;;;;;;18.17;8.60;;;;;;;2.05;99.71;100242.41;3575197;81;32307;-90
2021/01/05 14:05:18;;;;;;;15.00;7.85;;;;;;;2.03;99.52;100241.92;3568167;81;98494;-88
2021/01/05 14:10:19;;;;;;;17.13;8.13;;;;;;;1.98;99.38;100235.89;3566664;81;31758;-91
2021/01/05 14:15:20;;;;;;;15.70;8.30;;;;;;;1.93;99.26;100238.77;3547825;81;99106;-87
2021/01/05 14:20:21;;;;;;;14.87;7.90;;;;;;;1.86;99.26;100240.62;3552105;81;31820;-88
2021/01/05 14:25:22;;;;;;;15.53;7.97;;;;;;;1.85;99.20;100239.03;3545462;81;98244;-88
2021/01/05 14:30:24;;;;;;;18.07;8.37;;;;;;;1.81;99.18;100226.45;3558137;81;30977;-87
2021/01/05 14:35:26;;;;;;;19.30;8.20;;;;;;;1.77;99.27;100222.23;3544368;81;98209;-88
2021/01/05 14:40:28;;;;;;;17.93;8.60;;;;;;;1.75;99.16;100217.67;3551677;81;32300;-87
2021/01/05 14:45:29;;;;;;;17.80;8.70;;;;;;;1.71;99.11;100217.30;3558890;81;98392;-85
2021/01/05 14:50:30;;;;;;;17.05;8.65;;;;;;;1.64;99.20;100218.36;3562782;81;32298;-86
2021/01/05 14:55:34;;;;;;;17.63;8.90;;;;;;;1.60;99.19;100216.83;3544851;81;98534;-85
2021/01/05 15:00:34;;;;;;;16.73;8.47;;;;;;;1.57;99.18;100213.42;3542879;81;31741;-84
2021/01/05 15:05:35;;;;;;;16.07;8.58;;;;;;;1.58;99.27;100208.80;3535459;81;98232;-86
2021/01/05 15:10:36;;;;;;;16.67;8.13;;;;;;;1.58;99.24;100205.52;3546880;81;31763;-86
2021/01/05 15:15:37;;;;;;;13.80;7.00;;;;;;;1.58;99.13;100206.87;3539294;81;98245;-84
2021/01/05 15:20:38;;;;;;;15.37;7.97;;;;;;;1.56;99.08;100202.88;3550922;81;30064;-83
2021/01/05 15:25:39;;;;;;;15.63;7.50;;;;;;;1.54;99.11;100205.13;3541511;81;98213;-82
2021/01/05 15:30:40;;;;;;;16.97;7.97;;;;;;;1.48;98.99;100207.20;3531888;81;27542;-82
2021/01/05 15:35:42;;;;;;;17.10;8.83;;;;;;;1.47;99.23;100204.81;3540892;80;98144;-83
2021/01/05 15:40:43;;;;;;;15.60;7.90;;;;;;;1.47;99.04;100205.62;3546450;81;30001;-82
2021/01/05 15:45:44;;;;;;;15.33;7.80;;;;;;;1.49;99.20;100198.52;3539915;80;98582;-82
2021/01/05 15:50:45;;;;;;;19.33;9.77;;;;;;;1.49;99.17;100187.67;3548974;81;26490;-82
2021/01/05 15:55:45;;;;;;;18.50;8.30;;;;;;;1.43;99.11;100179.48;3539282;81;98182;-83
2021/01/05 16:00:46;;;;;;;20.73;10.43;;;;;;;1.39;99.27;100171.20;3555754;81;35026;-82
2021/01/05 16:05:47;;;;;;;18.27;9.10;;;;;;;1.37;99.31;100169.92;3541763;81;98471;-82
2021/01/05 16:10:48;;;;;;;14.90;7.67;;;;;;;1.35;99.33;100172.14;3555358;80;35022;-82
2021/01/05 16:15:49;;;;;;;23.57;11.23;;;;;;;1.35;99.51;100170.24;3547372;80;98171;-81
2021/01/05 16:20:50;;;;;;;17.43;8.07;;;;;;;1.34;99.50;100163.78;3556473;81;35022;-82
2021/01/05 16:25:51;;;;;;;16.20;7.83;;;;;;;1.37;99.54;100164.50;3531226;80;98303;-82
2021/01/05 16:30:51;;;;;;;18.60;8.28;;;;;;;1.38;99.51;100157.95;3547945;81;35152;-82
2021/01/05 16:35:53;;;;;;;16.07;8.67;;;;;;;1.39;99.51;100149.51;3545288;80;98520;-81
2021/01/05 16:40:55;;;;;;;16.30;9.07;;;;;;;1.41;99.49;100151.33;3552951;81;33575;-82
2021/01/05 16:45:55;;;;;;;16.95;9.53;;;;;;;1.38;99.44;100145.76;3547114;81;98306;-81
2021/01/05 16:50:56;;;;;;;14.90;7.10;;;;;;;1.38;99.54;100144.41;3554398;81;33265;-81
2021/01/05 16:55:58;;;;;;;14.97;7.80;;;;;;;1.39;99.50;100136.50;3542790;81;98151;-82
2021/01/05 17:00:59;;;;;;;11.73;6.57;;;;;;;1.37;99.54;100140.11;3547812;81;32804;-82
2021/01/05 17:06:00;;;;;;;14.70;7.77;;;;;;;1.38;99.52;100131.63;3542371;81;98190;-81
2021/01/05 17:11:02;;;;;;;13.43;6.93;;;;;;;1.33;99.54;100125.05;3545791;81;32663;-82
2021/01/05 17:16:04;;;;;;;15.17;7.23;;;;;;;1.35;99.60;100120.63;3512522;82;98163;-82
2021/01/05 17:21:05;;;;;;;16.80;7.67;;;;;;;1.36;99.71;100109.48;3506802;82;32747;-81
2021/01/05 17:26:06;;;;;;;13.90;6.70;;;;;;;1.39;99.70;100112.91;3566776;80;98174;-81
2021/01/05 17:31:06;;;;;;;13.27;6.27;;;;;;;1.40;99.60;100109.07;3571965;81;33000;-80
2021/01/05 17:36:08;;;;;;;11.30;5.23;;;;;;;1.37;99.54;100111.06;3585867;81;98444;-81
2021/01/05 17:41:09;;;;;;;14.77;6.33;;;;;;;1.37;99.58;100105.64;3581339;80;32647;-81
2021/01/05 17:46:10;;;;;;;12.70;5.97;;;;;;;1.36;99.60;100099.98;3564127;81;98468;-81
2021/01/05 17:51:14;;;;;;;12.17;6.03;;;;;;;1.38;99.55;100103.73;3569308;81;33358;-81
2021/01/05 17:56:15;;;;;;;11.30;5.63;;;;;;;1.36;99.50;100099.98;3574011;81;98422;-81
2021/01/05 18:01:15;;;;;;;12.43;6.17;;;;;;;1.36;99.54;100099.98;3582794;81;33265;-81
2021/01/05 18:06:16;;;;;;;13.70;6.30;;;;;;;1.43;99.52;100088.65;3583104;81;98169;-81
2021/01/05 18:11:17;;;;;;;9.90;4.73;;;;;;;1.46;99.46;100088.80;3593051;81;32776;-81
2021/01/05 18:16:25;;;;;;;12.57;5.63;;;;;;;1.46;99.31;100086.62;3582880;81;98187;-80
2021/01/05 18:21:36;;;;;;;13.93;7.00;;;;;;;1.46;99.31;100082.56;3592550;81;33367;-81
2021/01/05 18:26:37;;;;;;;12.23;5.92;;;;;;;1.43;99.21;100077.23;3584716;81;98232;-80
2021/01/05 18:31:38;;;;;;;10.73;4.97;;;;;;;1.41;99.27;100078.13;3584601;81;32656;-79
2021/01/05 18:36:39;;;;;;;11.10;5.10;;;;;;;1.45;99.24;100070.94;3582488;80;98378;-80
2021/01/05 18:41:40;;;;;;;10.57;5.20;;;;;;;1.43;99.10;100068.31;3597259;81;33266;-79
2021/01/05 18:46:44;;;;;;;10.07;4.97;;;;;;;1.42;99.09;100064.02;3561229;81;98396;-80
2021/01/05 18:51:44;;;;;;;12.23;5.10;;;;;;;1.40;99.09;100064.88;3592414;81;33114;-80
2021/01/05 18:56:46;;;;;;;12.97;5.17;;;;;;;1.38;99.06;100068.49;3559291;81;98116;-80
2021/01/05 19:01:47;;;;;;;14.07;5.80;;;;;;;1.36;99.18;100070.72;3561414;81;34004;-81
2021/01/05 19:06:50;;;;;;;10.70;4.97;;;;;;;1.42;99.15;100076.22;3539166;81;98558;-81
2021/01/05 19:11:53;;;;;;;10.43;5.43;;;;;;;1.41;99.15;100078.67;3519691;82;32726;-80
2021/01/05 19:16:53;;;;;;;12.43;4.92;;;;;;;1.40;99.04;100071.66;3555859;81;98086;-80
2021/01/05 19:21:54;;;;;;;10.87;5.37;;;;;;;1.42;99.09;100064.02;3578878;81;32716;-81
2021/01/05 19:26:55;;;;;;;10.07;4.83;;;;;;;1.36;99.01;100065.29;3553293;81;98375;-79
2021/01/05 19:31:56;;;;;;;9.03;4.27;;;;;;;1.36;99.04;100065.29;3578952;81;32765;-80
2021/01/05 19:36:57;;;;;;;11.50;4.87;;;;;;;1.34;98.94;100060.22;3577318;80;98031;-80
2021/01/05 19:41:59;;;;;;;12.73;4.73;;;;;;;1.34;99.03;100062.12;3578312;81;32768;-81
2021/01/05 19:47:05;;;;;;;9.63;4.85;;;;;;;1.33;99.03;100059.98;3563365;81;98069;-81
2021/01/05 19:52:06;;;;;;;11.83;4.90;;;;;;;1.36;99.00;100063.39;3565696;80;26055;-82
2021/01/05 19:57:07;;;;;;;10.73;4.60;;;;;;;1.37;98.99;100057.42;3564330;81;98097;-82
2021/01/05 20:02:09;;;;;;;10.77;4.90;;;;;;;1.37;99.03;100055.48;3570947;81;33377;-83
2021/01/05 20:07:10;;;;;;;12.40;5.65;;;;;;;1.41;98.99;100065.92;3544703;80;98814;-84
2021/01/05 20:12:11;;;;;;;7.70;3.90;;;;;;;1.45;98.98;100057.93;3572072;81;32716;-83
2021/01/05 20:17:13;;;;;;;10.17;4.57;;;;;;;1.48;98.85;100052.65;3560882;81;98297;-83
2021/01/05 20:22:14;;;;;;;11.73;5.60;;;;;;;1.49;98.79;100055.59;3570730;81;32745;-83
2021/01/05 20:27:15;;;;;;;9.47;4.60;;;;;;;1.48;98.65;100050.52;3564772;81;98449;-83
2021/01/05 20:32:16;;;;;;;7.93;4.03;;;;;;;1.48;98.65;100060.00;3563298;81;32632;-83
2021/01/05 20:37:17;;;;;;;10.40;4.43;;;;;;;1.48;98.67;100048.58;3556140;81;98356;-83
2021/01/05 20:42:18;;;;;;;12.40;5.10;;;;;;;1.48;98.60;100043.16;3567296;81;33327;-82
2021/01/05 20:47:19;;;;;;;11.97;5.63;;;;;;;1.48;98.56;100051.88;3570884;81;98396;-82
2021/01/05 20:52:30;;;;;;;10.30;4.47;;;;;;;1.49;98.63;100041.25;3578433;81;33125;-83
2021/01/05 20:57:26;;;;;;;11.40;5.53;;;;;;;1.48;98.56;100036.95;3573928;81;98469;-81
2021/01/05 21:02:27;;;;;;;10.40;4.73;;;;;;;1.47;98.51;100036.15;3580302;81;33230;-82
2021/01/05 21:07:32;;;;;;;14.00;5.17;;;;;;;1.45;98.49;100028.11;3562378;81;98345;-83
2021/01/05 21:12:35;;;;;;;11.53;5.37;;;;;;;1.45;98.58;100028.11;3568489;81;32748;-82
2021/01/05 21:17:37;;;;;;;9.53;3.70;;;;;;;1.47;98.59;100032.08;3582215;81;98331;-82
2021/01/05 21:22:43;;;;;;;8.90;4.20;;;;;;;1.50;98.56;100023.86;3567204;81;98396;-81
2021/01/05 21:27:44;;;;;;;9.28;4.37;;;;;;;1.48;98.45;100026.11;3567359;81;26594;-82
2021/01/05 21:32:46;;;;;;;11.37;4.50;;;;;;;1.50;98.42;100015.17;3559228;80;98389;-83
2021/01/05 21:37:47;;;;;;;10.57;4.60;;;;;;;1.49;98.44;100013.56;3567187;81;32718;-83
2021/01/05 21:42:49;;;;;;;9.70;4.73;;;;;;;1.48;98.29;100013.33;3565811;81;98671;-83
2021/01/05 21:47:51;;;;;;;10.17;4.47;;;;;;;1.49;98.33;100005.42;3573304;81;32703;-84
2021/01/05 21:52:52;;;;;;;11.87;5.00;;;;;;;1.48;98.34;100009.27;3563147;81;98680;-83
2021/01/05 21:57:53;;;;;;;10.80;5.10;;;;;;;1.48;98.30;100002.48;3553797;81;32739;-83
2021/01/05 22:03:00;;;;;;;10.40;4.47;;;;;;;1.51;98.30;100012.69;3505567;81;98525;-84
2021/01/05 22:08:05;;;;;;;10.47;4.77;;;;;;;1.50;98.29;100000.26;3531712;82;32746;-83
2021/01/05 22:13:10;;;;;;;10.08;5.20;;;;;;;1.51;98.25;100000.48;3589622;80;98377;-83
2021/01/05 22:18:11;;;;;;;9.97;4.87;;;;;;;1.52;98.28;100003.98;3601211;80;32783;-83
2021/01/05 22:23:18;;;;;;;11.10;5.30;;;;;;;1.51;98.24;100003.75;3599046;80;98125;-83
2021/01/05 22:28:21;;;;;;;10.68;5.03;;;;;;;1.52;98.19;99999.91;3604745;80;26161;-83
2021/01/05 22:33:23;;;;;;;10.03;5.00;;;;;;;1.51;98.22;99995.06;3596993;80;98209;-84
2021/01/05 22:38:29;;;;;;;9.57;4.33;;;;;;;1.52;98.16;99992.58;3606748;79;32836;-83
2021/01/05 22:43:33;;;;;;;11.10;5.53;;;;;;;1.49;98.03;99996.52;3597909;80;97939;-84
2021/01/05 22:48:36;;;;;;;10.90;5.03;;;;;;;1.50;98.11;99992.67;3602129;80;32701;-84
2021/01/05 22:53:37;;;;;;;10.50;5.13;;;;;;;1.53;98.14;99993.39;3580673;80;98236;-83
2021/01/05 22:58:38;;;;;;;9.33;5.03;;;;;;;1.56;98.10;99985.39;3599577;80;32863;-83
2021/01/05 23:03:39;;;;;;;9.93;5.57;;;;;;;1.55;98.00;99983.00;3597713;80;97976;-83
2021/01/05 23:08:41;;;;;;;11.27;5.77;;;;;;;1.60;98.07;99975.45;3604649;80;33210;-83
2021/01/05 23:13:43;;;;;;;11.67;6.03;;;;;;;1.68;98.01;99987.38;3598921;80;98150;-83
2021/01/05 23:18:44;;;;;;;13.03;5.80;;;;;;;1.73;97.94;99981.76;3602088;80;32762;-83
2021/01/05 23:23:46;;;;;;;12.97;5.80;;;;;;;1.76;97.77;99981.11;3596081;79;98162;-83
2021/01/05 23:28:49;;;;;;;11.50;6.17;;;;;;;1.77;97.74;99980.80;3605170;80;32717;-83
2021/01/05 23:33:51;;;;;;;12.13;5.97;;;;;;;1.74;97.69;99972.49;3594960;80;98162;-83